sensor_id;sensor_type;location;lat;lon;timestamp;P1;durP1;ratioP1;P2;durP2;ratioP2
23384;SDS011;11865;45.394;10.978;2023-04-27T00:02:14;8.27;;;3.30;;
23384;SDS011;11865;45.394;10.978;2023-04-27T00:04:42;4.78;;;2.92;;
23384;SDS011;11865;45.394;10.978;2023-04-27T00:07:10;4.78;;;2.60;;
23384;SDS011;11865;45.394;10.978;2023-04-27T00:09:38;9.40;;;2.75;;
23384;SDS011;11865;45.394;10.978;2023-04-27T00:12:05;6.35;;;2.80;;
23384;SDS011;11865;45.394;10.978;2023-04-27T00:14:33;6.35;;;2.90;;
23384;SDS011;11865;45.394;10.978;2023-04-27T00:17:00;4.43;;;2.50;;
23384;SDS011;11865;45.394;10.978;2023-04-27T00:19:28;5.45;;;2.53;;
23384;SDS011;11865;45.394;10.978;2023-04-27T00:21:56;6.22;;;2.80;;
23384;SDS011;11865;45.394;10.978;2023-04-27T00:24:23;5.18;;;3.03;;
23384;SDS011;11865;45.394;10.978;2023-04-27T00:26:51;5.82;;;2.67;;
23384;SDS011;11865;45.394;10.978;2023-04-27T00:29:19;3.35;;;2.20;;
23384;SDS011;11865;45.394;10.978;2023-04-27T00:31:46;4.25;;;2.60;;
23384;SDS011;11865;45.394;10.978;2023-04-27T00:34:13;3.83;;;2.60;;
23384;SDS011;11865;45.394;10.978;2023-04-27T00:36:41;5.18;;;3.03;;
23384;SDS011;11865;45.394;10.978;2023-04-27T00:39:09;4.15;;;2.65;;
23384;SDS011;11865;45.394;10.978;2023-04-27T00:41:37;4.57;;;2.50;;
23384;SDS011;11865;45.394;10.978;2023-04-27T00:44:07;3.90;;;2.67;;
23384;SDS011;11865;45.394;10.978;2023-04-27T00:46:35;3.65;;;2.28;;
23384;SDS011;11865;45.394;10.978;2023-04-27T00:49:02;3.88;;;2.40;;
23384;SDS011;11865;45.394;10.978;2023-04-27T00:51:30;3.72;;;2.30;;
23384;SDS011;11865;45.394;10.978;2023-04-27T00:53:58;5.32;;;2.03;;
23384;SDS011;11865;45.394;10.978;2023-04-27T00:56:26;2.78;;;2.22;;
23384;SDS011;11865;45.394;10.978;2023-04-27T00:58:54;4.68;;;2.13;;
23384;SDS011;11865;45.394;10.978;2023-04-27T01:01:22;3.22;;;2.08;;
23384;SDS011;11865;45.394;10.978;2023-04-27T01:03:49;3.53;;;2.30;;
23384;SDS011;11865;45.394;10.978;2023-04-27T01:06:17;5.03;;;2.08;;
23384;SDS011;11865;45.394;10.978;2023-04-27T01:08:45;3.17;;;1.90;;
23384;SDS011;11865;45.394;10.978;2023-04-27T01:11:12;5.28;;;2.03;;
23384;SDS011;11865;45.394;10.978;2023-04-27T01:13:40;4.80;;;2.13;;
23384;SDS011;11865;45.394;10.978;2023-04-27T01:16:07;8.25;;;2.38;;
23384;SDS011;11865;45.394;10.978;2023-04-27T01:18:38;10.50;;;3.20;;
23384;SDS011;11865;45.394;10.978;2023-04-27T01:21:06;10.63;;;3.70;;
23384;SDS011;11865;45.394;10.978;2023-04-27T01:23:34;4.57;;;2.97;;
23384;SDS011;11865;45.394;10.978;2023-04-27T01:26:02;5.25;;;3.70;;
23384;SDS011;11865;45.394;10.978;2023-04-27T01:28:30;7.28;;;3.40;;
23384;SDS011;11865;45.394;10.978;2023-04-27T01:30:59;6.03;;;3.53;;
23384;SDS011;11865;45.394;10.978;2023-04-27T01:33:27;4.95;;;3.33;;
23384;SDS011;11865;45.394;10.978;2023-04-27T01:35:54;6.25;;;4.00;;
23384;SDS011;11865;45.394;10.978;2023-04-27T01:38:21;5.90;;;3.50;;
23384;SDS011;11865;45.394;10.978;2023-04-27T01:40:49;6.75;;;3.65;;
23384;SDS011;11865;45.394;10.978;2023-04-27T01:43:19;7.50;;;3.65;;
23384;SDS011;11865;45.394;10.978;2023-04-27T01:45:46;5.72;;;3.13;;
23384;SDS011;11865;45.394;10.978;2023-04-27T01:48:14;10.45;;;3.95;;
23384;SDS011;11865;45.394;10.978;2023-04-27T01:50:43;8.45;;;3.70;;
23384;SDS011;11865;45.394;10.978;2023-04-27T01:53:10;6.20;;;3.25;;
23384;SDS011;11865;45.394;10.978;2023-04-27T01:55:37;7.40;;;3.38;;
23384;SDS011;11865;45.394;10.978;2023-04-27T01:58:05;6.88;;;3.20;;
23384;SDS011;11865;45.394;10.978;2023-04-27T02:00:32;6.30;;;3.47;;
23384;SDS011;11865;45.394;10.978;2023-04-27T02:03:00;8.57;;;4.53;;
23384;SDS011;11865;45.394;10.978;2023-04-27T02:05:28;12.85;;;3.92;;
23384;SDS011;11865;45.394;10.978;2023-04-27T02:07:55;9.38;;;4.03;;
23384;SDS011;11865;45.394;10.978;2023-04-27T02:10:23;7.63;;;4.05;;
23384;SDS011;11865;45.394;10.978;2023-04-27T02:12:54;8.32;;;4.35;;
23384;SDS011;11865;45.394;10.978;2023-04-27T02:15:22;7.55;;;4.00;;
23384;SDS011;11865;45.394;10.978;2023-04-27T02:17:50;7.90;;;3.47;;
23384;SDS011;11865;45.394;10.978;2023-04-27T02:20:17;11.73;;;4.90;;
23384;SDS011;11865;45.394;10.978;2023-04-27T02:22:45;5.10;;;3.45;;
23384;SDS011;11865;45.394;10.978;2023-04-27T02:25:12;9.38;;;4.10;;
23384;SDS011;11865;45.394;10.978;2023-04-27T02:27:41;8.75;;;4.40;;
23384;SDS011;11865;45.394;10.978;2023-04-27T02:30:10;4.82;;;3.30;;
23384;SDS011;11865;45.394;10.978;2023-04-27T02:32:38;5.55;;;3.67;;
23384;SDS011;11865;45.394;10.978;2023-04-27T02:35:07;6.75;;;3.53;;
23384;SDS011;11865;45.394;10.978;2023-04-27T02:37:35;7.65;;;4.00;;
23384;SDS011;11865;45.394;10.978;2023-04-27T02:40:03;4.50;;;3.40;;
23384;SDS011;11865;45.394;10.978;2023-04-27T02:42:33;10.75;;;4.03;;
23384;SDS011;11865;45.394;10.978;2023-04-27T02:45:02;6.07;;;3.60;;
23384;SDS011;11865;45.394;10.978;2023-04-27T02:47:29;5.75;;;3.67;;
23384;SDS011;11865;45.394;10.978;2023-04-27T02:49:57;6.38;;;3.53;;
23384;SDS011;11865;45.394;10.978;2023-04-27T02:52:24;7.40;;;3.90;;
23384;SDS011;11865;45.394;10.978;2023-04-27T02:54:52;6.90;;;4.25;;
23384;SDS011;11865;45.394;10.978;2023-04-27T02:57:19;7.30;;;3.90;;
23384;SDS011;11865;45.394;10.978;2023-04-27T02:59:47;4.55;;;3.70;;
23384;SDS011;11865;45.394;10.978;2023-04-27T03:02:14;7.50;;;4.05;;
23384;SDS011;11865;45.394;10.978;2023-04-27T03:04:42;4.88;;;3.08;;
23384;SDS011;11865;45.394;10.978;2023-04-27T03:07:10;7.18;;;3.85;;
23384;SDS011;11865;45.394;10.978;2023-04-27T03:09:38;8.32;;;3.40;;
23384;SDS011;11865;45.394;10.978;2023-04-27T03:12:05;7.30;;;3.70;;
23384;SDS011;11865;45.394;10.978;2023-04-27T03:14:33;8.63;;;3.85;;
23384;SDS011;11865;45.394;10.978;2023-04-27T03:17:01;5.47;;;3.65;;
23384;SDS011;11865;45.394;10.978;2023-04-27T03:19:28;9.52;;;3.67;;
23384;SDS011;11865;45.394;10.978;2023-04-27T03:21:56;7.53;;;3.50;;
23384;SDS011;11865;45.394;10.978;2023-04-27T03:24:24;12.23;;;4.10;;
23384;SDS011;11865;45.394;10.978;2023-04-27T03:26:51;6.78;;;3.60;;
23384;SDS011;11865;45.394;10.978;2023-04-27T03:29:20;13.55;;;3.95;;
23384;SDS011;11865;45.394;10.978;2023-04-27T03:31:47;8.65;;;3.80;;
23384;SDS011;11865;45.394;10.978;2023-04-27T03:34:15;8.82;;;4.65;;
23384;SDS011;11865;45.394;10.978;2023-04-27T03:36:42;6.72;;;3.60;;
23384;SDS011;11865;45.394;10.978;2023-04-27T03:39:10;8.77;;;3.60;;
23384;SDS011;11865;45.394;10.978;2023-04-27T03:41:37;10.05;;;4.15;;
23384;SDS011;11865;45.394;10.978;2023-04-27T03:44:05;8.23;;;3.03;;
23384;SDS011;11865;45.394;10.978;2023-04-27T03:46:33;10.55;;;3.30;;
23384;SDS011;11865;45.394;10.978;2023-04-27T03:49:01;5.90;;;3.00;;
23384;SDS011;11865;45.394;10.978;2023-04-27T03:51:29;6.85;;;3.00;;
23384;SDS011;11865;45.394;10.978;2023-04-27T03:54:00;12.70;;;3.67;;
23384;SDS011;11865;45.394;10.978;2023-04-27T03:56:28;6.15;;;2.80;;
23384;SDS011;11865;45.394;10.978;2023-04-27T03:58:56;9.98;;;4.63;;
23384;SDS011;11865;45.394;10.978;2023-04-27T04:01:47;16.55;;;3.67;;
23384;SDS011;11865;45.394;10.978;2023-04-27T04:04:14;10.15;;;3.08;;
23384;SDS011;11865;45.394;10.978;2023-04-27T04:06:42;6.03;;;3.30;;
23384;SDS011;11865;45.394;10.978;2023-04-27T04:09:10;4.93;;;3.35;;
23384;SDS011;11865;45.394;10.978;2023-04-27T04:11:39;9.30;;;3.60;;
23384;SDS011;11865;45.394;10.978;2023-04-27T04:14:09;6.80;;;3.45;;
23384;SDS011;11865;45.394;10.978;2023-04-27T04:16:36;8.80;;;3.58;;
23384;SDS011;11865;45.394;10.978;2023-04-27T04:19:04;6.63;;;3.00;;
23384;SDS011;11865;45.394;10.978;2023-04-27T04:21:31;4.85;;;2.85;;
23384;SDS011;11865;45.394;10.978;2023-04-27T04:23:59;5.50;;;3.03;;
23384;SDS011;11865;45.394;10.978;2023-04-27T04:26:27;5.50;;;2.95;;
23384;SDS011;11865;45.394;10.978;2023-04-27T04:28:54;5.93;;;2.80;;
23384;SDS011;11865;45.394;10.978;2023-04-27T04:31:22;8.60;;;3.78;;
23384;SDS011;11865;45.394;10.978;2023-04-27T04:33:50;4.05;;;2.80;;
23384;SDS011;11865;45.394;10.978;2023-04-27T04:36:17;12.15;;;3.53;;
23384;SDS011;11865;45.394;10.978;2023-04-27T04:38:45;8.00;;;2.88;;
23384;SDS011;11865;45.394;10.978;2023-04-27T04:41:14;5.72;;;3.03;;
23384;SDS011;11865;45.394;10.978;2023-04-27T04:43:42;9.07;;;3.10;;
23384;SDS011;11865;45.394;10.978;2023-04-27T04:46:09;9.88;;;3.70;;
23384;SDS011;11865;45.394;10.978;2023-04-27T04:48:37;16.13;;;3.80;;
23384;SDS011;11865;45.394;10.978;2023-04-27T04:51:05;5.75;;;2.78;;
23384;SDS011;11865;45.394;10.978;2023-04-27T04:53:33;8.02;;;3.42;;
23384;SDS011;11865;45.394;10.978;2023-04-27T04:56:08;8.10;;;3.05;;
23384;SDS011;11865;45.394;10.978;2023-04-27T04:58:36;12.80;;;3.58;;
23384;SDS011;11865;45.394;10.978;2023-04-27T05:01:04;10.60;;;3.13;;
23384;SDS011;11865;45.394;10.978;2023-04-27T05:03:32;10.98;;;3.90;;
23384;SDS011;11865;45.394;10.978;2023-04-27T05:06:00;7.90;;;3.33;;
23384;SDS011;11865;45.394;10.978;2023-04-27T05:08:27;7.60;;;3.33;;
23384;SDS011;11865;45.394;10.978;2023-04-27T05:10:55;6.30;;;3.67;;
23384;SDS011;11865;45.394;10.978;2023-04-27T05:13:22;5.68;;;3.10;;
23384;SDS011;11865;45.394;10.978;2023-04-27T05:15:52;6.82;;;2.58;;
23384;SDS011;11865;45.394;10.978;2023-04-27T05:18:20;8.57;;;3.65;;
23384;SDS011;11865;45.394;10.978;2023-04-27T05:20:47;4.75;;;2.67;;
23384;SDS011;11865;45.394;10.978;2023-04-27T05:23:15;5.30;;;3.50;;
23384;SDS011;11865;45.394;10.978;2023-04-27T05:25:42;5.43;;;2.67;;
23384;SDS011;11865;45.394;10.978;2023-04-27T05:28:09;4.90;;;3.05;;
23384;SDS011;11865;45.394;10.978;2023-04-27T05:30:37;11.82;;;3.58;;
23384;SDS011;11865;45.394;10.978;2023-04-27T05:33:04;5.15;;;3.13;;
23384;SDS011;11865;45.394;10.978;2023-04-27T05:35:33;14.25;;;3.75;;
23384;SDS011;11865;45.394;10.978;2023-04-27T05:38:01;11.98;;;3.50;;
23384;SDS011;11865;45.394;10.978;2023-04-27T05:40:29;6.72;;;3.35;;
23384;SDS011;11865;45.394;10.978;2023-04-27T05:42:56;8.43;;;3.00;;
23384;SDS011;11865;45.394;10.978;2023-04-27T05:45:23;5.95;;;3.40;;
23384;SDS011;11865;45.394;10.978;2023-04-27T05:47:51;5.63;;;2.63;;
23384;SDS011;11865;45.394;10.978;2023-04-27T05:50:19;7.22;;;2.63;;
23384;SDS011;11865;45.394;10.978;2023-04-27T05:52:47;4.43;;;2.80;;
23384;SDS011;11865;45.394;10.978;2023-04-27T05:55:14;6.40;;;2.80;;
23384;SDS011;11865;45.394;10.978;2023-04-27T05:57:42;5.57;;;2.13;;
23384;SDS011;11865;45.394;10.978;2023-04-27T06:00:12;6.78;;;2.33;;
23384;SDS011;11865;45.394;10.978;2023-04-27T06:02:40;5.43;;;2.20;;
23384;SDS011;11865;45.394;10.978;2023-04-27T06:05:08;6.40;;;2.30;;
23384;SDS011;11865;45.394;10.978;2023-04-27T06:07:37;6.57;;;2.35;;
23384;SDS011;11865;45.394;10.978;2023-04-27T06:10:05;7.97;;;2.55;;
23384;SDS011;11865;45.394;10.978;2023-04-27T06:12:33;6.82;;;2.63;;
23384;SDS011;11865;45.394;10.978;2023-04-27T06:15:01;5.35;;;3.03;;
23384;SDS011;11865;45.394;10.978;2023-04-27T06:17:37;5.07;;;2.60;;
23384;SDS011;11865;45.394;10.978;2023-04-27T06:20:05;5.55;;;2.20;;
23384;SDS011;11865;45.394;10.978;2023-04-27T06:22:34;3.35;;;2.20;;
23384;SDS011;11865;45.394;10.978;2023-04-27T06:25:05;5.03;;;1.95;;
23384;SDS011;11865;45.394;10.978;2023-04-27T06:27:33;5.35;;;2.20;;
23384;SDS011;11865;45.394;10.978;2023-04-27T06:30:01;3.60;;;2.40;;
23384;SDS011;11865;45.394;10.978;2023-04-27T06:32:28;3.33;;;1.80;;
23384;SDS011;11865;45.394;10.978;2023-04-27T06:34:56;3.45;;;2.03;;
23384;SDS011;11865;45.394;10.978;2023-04-27T06:37:24;5.47;;;2.10;;
23384;SDS011;11865;45.394;10.978;2023-04-27T06:39:52;4.65;;;2.00;;
23384;SDS011;11865;45.394;10.978;2023-04-27T06:42:20;5.28;;;1.85;;
23384;SDS011;11865;45.394;10.978;2023-04-27T06:44:48;7.47;;;3.00;;
23384;SDS011;11865;45.394;10.978;2023-04-27T06:47:15;3.35;;;2.40;;
23384;SDS011;11865;45.394;10.978;2023-04-27T06:49:43;6.40;;;2.28;;
23384;SDS011;11865;45.394;10.978;2023-04-27T06:52:12;8.10;;;2.88;;
23384;SDS011;11865;45.394;10.978;2023-04-27T06:54:40;11.40;;;4.55;;
23384;SDS011;11865;45.394;10.978;2023-04-27T06:57:08;7.22;;;2.80;;
23384;SDS011;11865;45.394;10.978;2023-04-27T06:59:35;8.93;;;3.05;;
23384;SDS011;11865;45.394;10.978;2023-04-27T07:02:03;5.55;;;3.25;;
23384;SDS011;11865;45.394;10.978;2023-04-27T07:04:30;10.23;;;3.10;;
23384;SDS011;11865;45.394;10.978;2023-04-27T07:06:58;7.25;;;2.70;;
23384;SDS011;11865;45.394;10.978;2023-04-27T07:09:26;6.10;;;2.97;;
23384;SDS011;11865;45.394;10.978;2023-04-27T07:11:54;7.88;;;3.90;;
23384;SDS011;11865;45.394;10.978;2023-04-27T07:14:24;8.38;;;3.10;;
23384;SDS011;11865;45.394;10.978;2023-04-27T07:16:52;3.90;;;3.10;;
23384;SDS011;11865;45.394;10.978;2023-04-27T07:19:20;3.25;;;2.42;;
23384;SDS011;11865;45.394;10.978;2023-04-27T07:21:47;4.32;;;3.17;;
23384;SDS011;11865;45.394;10.978;2023-04-27T07:24:15;4.18;;;2.30;;
23384;SDS011;11865;45.394;10.978;2023-04-27T07:26:43;5.07;;;2.10;;
23384;SDS011;11865;45.394;10.978;2023-04-27T07:29:11;7.18;;;2.00;;
23384;SDS011;11865;45.394;10.978;2023-04-27T07:31:52;3.58;;;1.42;;
23384;SDS011;11865;45.394;10.978;2023-04-27T07:34:21;3.35;;;1.40;;
23384;SDS011;11865;45.394;10.978;2023-04-27T07:36:50;1.80;;;1.63;;
23384;SDS011;11865;45.394;10.978;2023-04-27T07:39:20;1.65;;;1.02;;
23384;SDS011;11865;45.394;10.978;2023-04-27T07:41:48;1.92;;;1.23;;
23384;SDS011;11865;45.394;10.978;2023-04-27T07:44:16;6.40;;;1.42;;
23384;SDS011;11865;45.394;10.978;2023-04-27T07:46:45;6.28;;;1.20;;
23384;SDS011;11865;45.394;10.978;2023-04-27T07:49:15;5.32;;;1.30;;
23384;SDS011;11865;45.394;10.978;2023-04-27T07:51:43;1.65;;;1.00;;
23384;SDS011;11865;45.394;10.978;2023-04-27T07:54:11;3.22;;;0.93;;
23384;SDS011;11865;45.394;10.978;2023-04-27T07:56:42;2.03;;;1.05;;
23384;SDS011;11865;45.394;10.978;2023-04-27T07:59:09;2.38;;;1.08;;
23384;SDS011;11865;45.394;10.978;2023-04-27T08:01:38;1.58;;;1.00;;
23384;SDS011;11865;45.394;10.978;2023-04-27T08:04:05;1.38;;;1.00;;
23384;SDS011;11865;45.394;10.978;2023-04-27T08:06:34;2.28;;;0.98;;
23384;SDS011;11865;45.394;10.978;2023-04-27T08:09:02;1.48;;;0.70;;
23384;SDS011;11865;45.394;10.978;2023-04-27T08:11:30;2.85;;;1.00;;
23384;SDS011;11865;45.394;10.978;2023-04-27T08:13:58;1.92;;;0.90;;
23384;SDS011;11865;45.394;10.978;2023-04-27T08:16:26;1.70;;;0.88;;
23384;SDS011;11865;45.394;10.978;2023-04-27T08:18:54;2.67;;;0.70;;
23384;SDS011;11865;45.394;10.978;2023-04-27T08:21:24;1.38;;;0.88;;
23384;SDS011;11865;45.394;10.978;2023-04-27T08:23:54;1.38;;;0.90;;
23384;SDS011;11865;45.394;10.978;2023-04-27T08:26:22;2.47;;;1.10;;
23384;SDS011;11865;45.394;10.978;2023-04-27T08:28:52;0.90;;;0.65;;
23384;SDS011;11865;45.394;10.978;2023-04-27T08:31:19;4.85;;;0.80;;
23384;SDS011;11865;45.394;10.978;2023-04-27T08:33:47;3.15;;;0.80;;
23384;SDS011;11865;45.394;10.978;2023-04-27T08:36:15;2.65;;;0.85;;
23384;SDS011;11865;45.394;10.978;2023-04-27T08:38:42;4.43;;;1.83;;
23384;SDS011;11865;45.394;10.978;2023-04-27T08:41:10;5.57;;;1.30;;
23384;SDS011;11865;45.394;10.978;2023-04-27T08:43:48;7.72;;;1.60;;
23384;SDS011;11865;45.394;10.978;2023-04-27T08:46:20;4.00;;;1.45;;
23384;SDS011;11865;45.394;10.978;2023-04-27T08:48:49;1.25;;;0.90;;
23384;SDS011;11865;45.394;10.978;2023-04-27T08:51:17;0.82;;;0.60;;
23384;SDS011;11865;45.394;10.978;2023-04-27T08:53:52;4.22;;;1.52;;
23384;SDS011;11865;45.394;10.978;2023-04-27T08:56:22;2.88;;;1.08;;
23384;SDS011;11865;45.394;10.978;2023-04-27T08:58:52;3.70;;;0.75;;
23384;SDS011;11865;45.394;10.978;2023-04-27T09:01:20;3.03;;;0.95;;
23384;SDS011;11865;45.394;10.978;2023-04-27T09:03:56;2.80;;;1.13;;
23384;SDS011;11865;45.394;10.978;2023-04-27T09:06:32;2.22;;;1.02;;
23384;SDS011;11865;45.394;10.978;2023-04-27T09:09:01;6.57;;;0.70;;
23384;SDS011;11865;45.394;10.978;2023-04-27T09:11:30;3.40;;;0.90;;
23384;SDS011;11865;45.394;10.978;2023-04-27T09:14:00;4.72;;;0.80;;
23384;SDS011;11865;45.394;10.978;2023-04-27T09:16:29;3.95;;;1.33;;
23384;SDS011;11865;45.394;10.978;2023-04-27T09:18:57;1.83;;;0.90;;
23384;SDS011;11865;45.394;10.978;2023-04-27T09:21:26;3.70;;;0.98;;
23384;SDS011;11865;45.394;10.978;2023-04-27T09:23:55;3.83;;;1.10;;
23384;SDS011;11865;45.394;10.978;2023-04-27T09:26:24;6.00;;;1.00;;
23384;SDS011;11865;45.394;10.978;2023-04-27T09:28:53;3.63;;;1.15;;
23384;SDS011;11865;45.394;10.978;2023-04-27T09:31:31;3.55;;;1.45;;
23384;SDS011;11865;45.394;10.978;2023-04-27T09:33:59;3.60;;;1.73;;
23384;SDS011;11865;45.394;10.978;2023-04-27T09:36:28;5.22;;;1.23;;
23384;SDS011;11865;45.394;10.978;2023-04-27T09:38:58;4.55;;;1.52;;
23384;SDS011;11865;45.394;10.978;2023-04-27T09:41:31;3.40;;;1.55;;
23384;SDS011;11865;45.394;10.978;2023-04-27T09:43:59;2.30;;;1.50;;
23384;SDS011;11865;45.394;10.978;2023-04-27T09:46:27;2.53;;;1.23;;
23384;SDS011;11865;45.394;10.978;2023-04-27T09:48:58;10.30;;;3.53;;
23384;SDS011;11865;45.394;10.978;2023-04-27T09:51:30;7.03;;;1.80;;
23384;SDS011;11865;45.394;10.978;2023-04-27T09:53:57;3.97;;;1.75;;
23384;SDS011;11865;45.394;10.978;2023-04-27T10:01:49;2.63;;;1.50;;
23384;SDS011;11865;45.394;10.978;2023-04-27T10:07:25;1.30;;;1.10;;
23384;SDS011;11865;45.394;10.978;2023-04-27T10:09:54;3.08;;;1.20;;
23384;SDS011;11865;45.394;10.978;2023-04-27T10:12:31;3.28;;;1.23;;
23384;SDS011;11865;45.394;10.978;2023-04-27T10:15:13;3.72;;;0.75;;
23384;SDS011;11865;45.394;10.978;2023-04-27T10:17:46;0.73;;;0.70;;
23384;SDS011;11865;45.394;10.978;2023-04-27T10:20:15;2.65;;;0.80;;
23384;SDS011;11865;45.394;10.978;2023-04-27T10:22:47;2.88;;;1.10;;
23384;SDS011;11865;45.394;10.978;2023-04-27T10:25:22;1.10;;;0.80;;
23384;SDS011;11865;45.394;10.978;2023-04-27T10:30:20;1.77;;;0.80;;
23384;SDS011;11865;45.394;10.978;2023-04-27T10:32:54;3.67;;;0.80;;
23384;SDS011;11865;45.394;10.978;2023-04-27T10:35:35;3.10;;;1.10;;
23384;SDS011;11865;45.394;10.978;2023-04-27T10:40:36;2.00;;;0.90;;
23384;SDS011;11865;45.394;10.978;2023-04-27T10:43:11;1.25;;;1.00;;
23384;SDS011;11865;45.394;10.978;2023-04-27T10:45:43;4.47;;;1.20;;
23384;SDS011;11865;45.394;10.978;2023-04-27T10:48:12;1.52;;;1.15;;
23384;SDS011;11865;45.394;10.978;2023-04-27T10:50:42;2.05;;;1.40;;
23384;SDS011;11865;45.394;10.978;2023-04-27T10:53:12;6.93;;;1.50;;
23384;SDS011;11865;45.394;10.978;2023-04-27T10:55:41;2.08;;;1.45;;
23384;SDS011;11865;45.394;10.978;2023-04-27T10:58:08;3.05;;;1.65;;
23384;SDS011;11865;45.394;10.978;2023-04-27T11:00:40;3.03;;;1.40;;
23384;SDS011;11865;45.394;10.978;2023-04-27T11:05:43;3.47;;;2.50;;
23384;SDS011;11865;45.394;10.978;2023-04-27T11:08:14;2.58;;;2.13;;
23384;SDS011;11865;45.394;10.978;2023-04-27T11:10:47;4.50;;;2.80;;
23384;SDS011;11865;45.394;10.978;2023-04-27T11:13:17;2.53;;;2.33;;
23384;SDS011;11865;45.394;10.978;2023-04-27T11:15:56;3.97;;;3.22;;
23384;SDS011;11865;45.394;10.978;2023-04-27T11:18:25;7.68;;;3.60;;
23384;SDS011;11865;45.394;10.978;2023-04-27T11:21:06;5.03;;;3.22;;
23384;SDS011;11865;45.394;10.978;2023-04-27T11:23:41;7.28;;;3.95;;
23384;SDS011;11865;45.394;10.978;2023-04-27T11:26:10;7.40;;;3.70;;
23384;SDS011;11865;45.394;10.978;2023-04-27T11:29:04;6.47;;;4.25;;
23384;SDS011;11865;45.394;10.978;2023-04-27T11:31:45;5.22;;;4.32;;
23384;SDS011;11865;45.394;10.978;2023-04-27T11:34:16;6.35;;;4.00;;
23384;SDS011;11865;45.394;10.978;2023-04-27T11:36:58;5.60;;;3.78;;
23384;SDS011;11865;45.394;10.978;2023-04-27T11:39:37;5.55;;;4.38;;
23384;SDS011;11865;45.394;10.978;2023-04-27T11:42:26;6.25;;;4.45;;
23384;SDS011;11865;45.394;10.978;2023-04-27T11:44:55;8.20;;;5.28;;
23384;SDS011;11865;45.394;10.978;2023-04-27T11:47:29;11.15;;;5.30;;
23384;SDS011;11865;45.394;10.978;2023-04-27T11:49:58;8.77;;;5.10;;
23384;SDS011;11865;45.394;10.978;2023-04-27T11:52:30;7.72;;;5.95;;
23384;SDS011;11865;45.394;10.978;2023-04-27T11:54:59;7.63;;;5.35;;
23384;SDS011;11865;45.394;10.978;2023-04-27T11:57:30;9.30;;;5.63;;
23384;SDS011;11865;45.394;10.978;2023-04-27T11:59:59;7.72;;;5.00;;
23384;SDS011;11865;45.394;10.978;2023-04-27T12:02:40;12.73;;;6.30;;
23384;SDS011;11865;45.394;10.978;2023-04-27T12:05:09;14.77;;;6.05;;
23384;SDS011;11865;45.394;10.978;2023-04-27T12:07:38;11.43;;;6.53;;
23384;SDS011;11865;45.394;10.978;2023-04-27T12:10:07;9.80;;;5.88;;
23384;SDS011;11865;45.394;10.978;2023-04-27T12:12:35;9.90;;;6.53;;
23384;SDS011;11865;45.394;10.978;2023-04-27T12:15:02;11.75;;;6.13;;
23384;SDS011;11865;45.394;10.978;2023-04-27T12:17:30;8.70;;;6.00;;
23384;SDS011;11865;45.394;10.978;2023-04-27T12:19:58;8.45;;;5.93;;
23384;SDS011;11865;45.394;10.978;2023-04-27T12:22:26;9.27;;;5.82;;
23384;SDS011;11865;45.394;10.978;2023-04-27T12:24:53;9.95;;;6.85;;
23384;SDS011;11865;45.394;10.978;2023-04-27T12:27:20;11.45;;;6.75;;
23384;SDS011;11865;45.394;10.978;2023-04-27T12:29:48;12.27;;;5.65;;
23384;SDS011;11865;45.394;10.978;2023-04-27T12:32:15;9.13;;;5.75;;
23384;SDS011;11865;45.394;10.978;2023-04-27T12:34:43;12.57;;;7.38;;
23384;SDS011;11865;45.394;10.978;2023-04-27T12:37:10;10.45;;;5.80;;
23384;SDS011;11865;45.394;10.978;2023-04-27T12:39:38;12.60;;;6.20;;
23384;SDS011;11865;45.394;10.978;2023-04-27T12:42:06;12.80;;;7.18;;
23384;SDS011;11865;45.394;10.978;2023-04-27T12:44:33;6.47;;;4.47;;
23384;SDS011;11865;45.394;10.978;2023-04-27T12:47:02;24.35;;;7.47;;
23384;SDS011;11865;45.394;10.978;2023-04-27T12:49:29;14.73;;;5.60;;
23384;SDS011;11865;45.394;10.978;2023-04-27T12:51:57;9.40;;;4.53;;
23384;SDS011;11865;45.394;10.978;2023-04-27T12:54:24;6.63;;;4.10;;
23384;SDS011;11865;45.394;10.978;2023-04-27T12:56:52;6.85;;;4.45;;
23384;SDS011;11865;45.394;10.978;2023-04-27T12:59:20;8.10;;;4.40;;
23384;SDS011;11865;45.394;10.978;2023-04-27T13:01:47;6.85;;;4.20;;
23384;SDS011;11865;45.394;10.978;2023-04-27T13:04:18;6.55;;;4.35;;
23384;SDS011;11865;45.394;10.978;2023-04-27T13:06:48;11.70;;;5.38;;
23384;SDS011;11865;45.394;10.978;2023-04-27T13:09:15;5.40;;;3.85;;
23384;SDS011;11865;45.394;10.978;2023-04-27T13:11:42;9.25;;;3.55;;
23384;SDS011;11865;45.394;10.978;2023-04-27T13:14:10;6.90;;;3.75;;
23384;SDS011;11865;45.394;10.978;2023-04-27T13:16:40;12.60;;;5.15;;
23384;SDS011;11865;45.394;10.978;2023-04-27T13:19:08;17.20;;;5.97;;
23384;SDS011;11865;45.394;10.978;2023-04-27T13:21:35;9.13;;;4.88;;
23384;SDS011;11865;45.394;10.978;2023-04-27T13:24:03;8.27;;;4.60;;
23384;SDS011;11865;45.394;10.978;2023-04-27T13:26:31;8.95;;;4.85;;
23384;SDS011;11865;45.394;10.978;2023-04-27T13:28:59;7.30;;;4.57;;
23384;SDS011;11865;45.394;10.978;2023-04-27T13:31:27;7.88;;;5.05;;
23384;SDS011;11865;45.394;10.978;2023-04-27T13:33:55;8.70;;;4.55;;
23384;SDS011;11865;45.394;10.978;2023-04-27T13:36:22;7.90;;;4.72;;
23384;SDS011;11865;45.394;10.978;2023-04-27T13:38:50;9.00;;;4.85;;
23384;SDS011;11865;45.394;10.978;2023-04-27T13:41:17;10.13;;;4.57;;
23384;SDS011;11865;45.394;10.978;2023-04-27T13:43:45;11.35;;;4.97;;
23384;SDS011;11865;45.394;10.978;2023-04-27T13:46:12;7.68;;;4.50;;
23384;SDS011;11865;45.394;10.978;2023-04-27T13:48:40;9.68;;;5.20;;
23384;SDS011;11865;45.394;10.978;2023-04-27T13:51:08;10.43;;;4.80;;
23384;SDS011;11865;45.394;10.978;2023-04-27T13:53:36;8.43;;;4.88;;
23384;SDS011;11865;45.394;10.978;2023-04-27T13:56:03;8.38;;;5.28;;
23384;SDS011;11865;45.394;10.978;2023-04-27T13:58:31;14.25;;;5.30;;
23384;SDS011;11865;45.394;10.978;2023-04-27T14:00:58;10.15;;;5.68;;
23384;SDS011;11865;45.394;10.978;2023-04-27T14:03:26;7.95;;;5.05;;
23384;SDS011;11865;45.394;10.978;2023-04-27T14:05:53;14.82;;;4.95;;
23384;SDS011;11865;45.394;10.978;2023-04-27T14:08:21;10.05;;;5.70;;
23384;SDS011;11865;45.394;10.978;2023-04-27T14:10:49;10.75;;;5.70;;
23384;SDS011;11865;45.394;10.978;2023-04-27T14:13:17;9.38;;;5.75;;
23384;SDS011;11865;45.394;10.978;2023-04-27T14:15:45;9.13;;;5.45;;
23384;SDS011;11865;45.394;10.978;2023-04-27T14:18:12;8.98;;;5.68;;
23384;SDS011;11865;45.394;10.978;2023-04-27T14:20:40;12.43;;;5.90;;
23384;SDS011;11865;45.394;10.978;2023-04-27T14:23:08;8.50;;;5.22;;
23384;SDS011;11865;45.394;10.978;2023-04-27T14:25:36;11.98;;;5.65;;
23384;SDS011;11865;45.394;10.978;2023-04-27T14:28:05;12.00;;;5.97;;
23384;SDS011;11865;45.394;10.978;2023-04-27T14:30:32;9.48;;;5.50;;
23384;SDS011;11865;45.394;10.978;2023-04-27T14:33:00;11.27;;;5.63;;
23384;SDS011;11865;45.394;10.978;2023-04-27T14:35:29;12.38;;;6.32;;
23384;SDS011;11865;45.394;10.978;2023-04-27T14:37:56;16.23;;;7.03;;
23384;SDS011;11865;45.394;10.978;2023-04-27T14:40:31;13.52;;;5.90;;
23384;SDS011;11865;45.394;10.978;2023-04-27T14:42:58;12.98;;;6.25;;
23384;SDS011;11865;45.394;10.978;2023-04-27T14:45:26;10.98;;;6.35;;
23384;SDS011;11865;45.394;10.978;2023-04-27T14:48:09;16.73;;;6.82;;
23384;SDS011;11865;45.394;10.978;2023-04-27T14:50:37;11.63;;;6.05;;
23384;SDS011;11865;45.394;10.978;2023-04-27T14:53:04;8.43;;;5.03;;
23384;SDS011;11865;45.394;10.978;2023-04-27T14:55:32;9.23;;;5.13;;
23384;SDS011;11865;45.394;10.978;2023-04-27T14:57:59;15.82;;;6.18;;
23384;SDS011;11865;45.394;10.978;2023-04-27T15:00:27;11.25;;;5.88;;